createdAt,value
2018-06-19T00:01:11.658Z,16.10
2018-06-19T00:03:42.152Z,16.00
2018-06-19T00:06:11.553Z,16.20
2018-06-19T00:08:41.124Z,16.40
2018-06-19T00:11:11.075Z,16.30
2018-06-19T00:13:40.892Z,16.10
2018-06-19T00:16:10.544Z,15.80
2018-06-19T00:18:47.325Z,16.00
2018-06-19T00:21:35.805Z,16.00
2018-06-19T00:24:05.404Z,16.00
2018-06-19T00:26:34.964Z,16.00
2018-06-19T00:29:04.257Z,15.80
2018-06-19T00:31:33.550Z,16.00
2018-06-19T00:34:02.778Z,15.90
2018-06-19T00:36:32.045Z,15.90
2018-06-19T00:39:01.682Z,16.00
2018-06-19T00:41:31.461Z,16.20
2018-06-19T00:44:00.667Z,16.10
2018-06-19T00:46:30.381Z,16.00
2018-06-19T00:48:59.607Z,15.90
2018-06-19T00:51:28.865Z,16.20
2018-06-19T00:53:58.094Z,16.10
2018-06-19T00:56:38.650Z,16.20
2018-06-19T00:59:07.919Z,15.80
2018-06-19T01:01:37.292Z,16.10
2018-06-19T01:04:06.990Z,16.20
2018-06-19T01:06:36.243Z,16.30
2018-06-19T01:09:07.438Z,16.40
2018-06-19T01:11:37.154Z,16.10
2018-06-19T01:14:06.511Z,15.90
2018-06-19T01:16:35.854Z,15.90
2018-06-19T01:19:05.206Z,16.00
2018-06-19T01:21:34.432Z,16.00
2018-06-19T01:24:03.949Z,16.40
2018-06-19T01:26:33.166Z,16.50
2018-06-19T01:29:02.398Z,16.30
2018-06-19T01:31:31.644Z,16.10
2018-06-19T01:34:00.847Z,16.00
2018-06-19T01:36:34.241Z,15.80
2018-06-19T01:39:04.229Z,15.80
2018-06-19T01:41:33.495Z,15.70
2018-06-19T01:44:03.370Z,16.00
2018-06-19T01:46:32.781Z,16.20
2018-06-19T01:49:02.575Z,16.20
2018-06-19T01:51:31.864Z,16.40
2018-06-19T01:54:07.817Z,16.60
2018-06-19T01:56:39.154Z,16.50
2018-06-19T01:59:12.445Z,16.60
2018-06-19T02:01:45.633Z,16.40
2018-06-19T02:04:18.437Z,16.40
2018-06-19T02:06:48.472Z,16.40
2018-06-19T02:09:18.390Z,16.40
2018-06-19T02:11:47.814Z,16.30
2018-06-19T02:14:21.298Z,16.30
2018-06-19T02:16:53.274Z,16.50
2018-06-19T02:19:28.282Z,16.70
2018-06-19T02:22:00.852Z,16.50
2018-06-19T02:24:33.365Z,16.60
2018-06-19T02:27:06.725Z,16.40
2018-06-19T02:29:40.877Z,16.40
2018-06-19T02:32:11.972Z,16.40
2018-06-19T02:34:44.470Z,16.30
2018-06-19T02:37:13.741Z,16.60
2018-06-19T02:39:42.934Z,16.60
2018-06-19T02:42:12.343Z,16.30
2018-06-19T02:44:44.717Z,16.40
2018-06-19T02:47:16.443Z,16.30
2018-06-19T02:49:47.392Z,16.50
2018-06-19T02:52:19.234Z,16.70
2018-06-19T02:54:51.089Z,16.60
2018-06-19T02:57:21.309Z,16.60
2018-06-19T02:59:51.656Z,16.60
2018-06-19T03:02:22.561Z,16.50
2018-06-19T03:04:54.286Z,16.40
2018-06-19T03:07:26.597Z,16.30
2018-06-19T03:09:56.144Z,16.20
2018-06-19T03:12:26.460Z,16.00
2018-06-19T03:14:55.729Z,15.80
2018-06-19T03:17:25.043Z,15.60
2018-06-19T03:19:54.851Z,15.80
2018-06-19T03:22:24.179Z,15.90
2018-06-19T03:24:53.765Z,16.00
2018-06-19T03:27:23.516Z,15.90
2018-06-19T03:29:52.700Z,16.10
2018-06-19T03:32:21.910Z,16.00
2018-06-19T03:34:51.096Z,16.00
2018-06-19T03:37:20.382Z,16.10
2018-06-19T03:39:49.631Z,16.30
2018-06-19T03:42:19.282Z,16.40
2018-06-19T03:44:48.539Z,16.50
2018-06-19T03:47:18.283Z,16.60
2018-06-19T03:49:47.515Z,16.50
2018-06-19T03:52:16.837Z,16.50
2018-06-19T03:57:15.736Z,16.60
2018-06-19T03:59:45.285Z,16.60
2018-06-19T04:02:14.826Z,16.60
2018-06-19T04:04:44.399Z,16.70
2018-06-19T04:07:13.648Z,16.80
2018-06-19T04:09:42.979Z,16.90
2018-06-19T04:12:12.596Z,17.00
2018-06-19T04:14:41.809Z,17.00
2018-06-19T04:17:16.111Z,16.90
2018-06-19T04:19:45.949Z,16.90
2018-06-19T04:22:46.018Z,16.90
2018-06-19T04:25:15.585Z,17.00
2018-06-19T04:27:51.781Z,17.10
2018-06-19T04:30:21.002Z,17.20
2018-06-19T04:32:50.792Z,17.10
2018-06-19T04:35:19.961Z,16.90
2018-06-19T04:37:49.208Z,16.70
2018-06-19T04:40:18.741Z,16.70
2018-06-19T04:42:48.243Z,16.70
2018-06-19T04:45:19.687Z,16.70
2018-06-19T04:47:49.441Z,16.80
2018-06-19T04:50:18.960Z,16.80
2018-06-19T04:52:49.055Z,16.70
2018-06-19T04:55:18.757Z,16.80
2018-06-19T04:57:48.058Z,16.80
2018-06-19T05:00:17.332Z,16.90
2018-06-19T05:02:48.802Z,17.00
2018-06-19T05:10:16.142Z,17.10
2018-06-19T05:12:46.083Z,17.00
2018-06-19T05:15:15.625Z,17.10
2018-06-19T05:17:45.364Z,17.00
2018-06-19T05:20:16.685Z,17.20
2018-06-19T05:23:07.425Z,17.20
2018-06-19T05:25:36.670Z,17.10
2018-06-19T05:28:07.025Z,17.10
2018-06-19T05:30:45.684Z,17.30
2018-06-19T05:33:15.868Z,17.30
2018-06-19T05:35:54.828Z,17.30
2018-06-19T05:38:24.586Z,17.10
2018-06-19T05:40:53.928Z,17.40
2018-06-19T05:43:49.445Z,17.50
2018-06-19T05:46:19.756Z,17.70
2018-06-19T05:48:50.892Z,18.20
2018-06-19T05:51:27.735Z,18.60
2018-06-19T05:53:59.228Z,18.70
2018-06-19T05:56:30.894Z,19.00
2018-06-19T05:59:08.681Z,19.20
2018-06-19T06:01:38.528Z,19.60
2018-06-19T06:04:09.353Z,19.70
2018-06-19T06:06:38.864Z,19.60
2018-06-19T06:09:10.195Z,20.00
2018-06-19T06:11:39.503Z,20.10
2018-06-19T06:14:09.480Z,21.20
2018-06-19T06:16:38.838Z,22.30
2018-06-19T06:19:08.131Z,22.60
2018-06-19T06:21:37.994Z,22.40
2018-06-19T06:24:07.357Z,23.20
2018-06-19T06:26:37.071Z,24.10
2018-06-19T06:31:40.373Z,21.50
2018-06-19T06:34:16.942Z,22.10
2018-06-19T06:36:48.099Z,21.90
2018-06-19T06:39:20.906Z,22.40
2018-06-19T06:46:38.190Z,22.00
2018-06-19T06:52:29.062Z,23.00
2018-06-19T06:54:58.795Z,23.10
2018-06-19T06:58:08.434Z,22.50
2018-06-19T07:03:08.746Z,25.00
2018-06-19T07:05:38.330Z,22.20
2018-06-19T07:08:07.982Z,24.60
2018-06-19T07:10:37.647Z,28.00
2018-06-19T07:13:06.992Z,29.30
2018-06-19T07:15:36.813Z,30.70
2018-06-19T07:18:07.194Z,31.50
2018-06-19T07:20:36.450Z,33.00
2018-06-19T07:25:37.688Z,30.80
2018-06-19T07:28:09.165Z,28.30
2018-06-19T07:30:38.706Z,23.60
2018-06-19T07:33:21.509Z,22.90
2018-06-19T07:36:04.980Z,22.90
2018-06-19T07:38:36.282Z,20.70
2018-06-19T07:41:16.837Z,19.70
2018-06-19T07:43:55.245Z,19.80
2018-06-19T07:46:32.019Z,20.80
2018-06-19T07:49:05.381Z,21.50
2018-06-19T07:51:35.008Z,21.30
2018-06-19T07:54:04.393Z,20.60
2018-06-19T07:56:34.331Z,19.90
2018-06-19T07:59:03.831Z,19.50
2018-06-19T08:01:33.141Z,19.50
2018-06-19T08:04:04.081Z,19.50
2018-06-19T08:08:20.340Z,20.00
2018-06-19T08:10:51.153Z,20.10
2018-06-19T08:13:20.508Z,20.10
2018-06-19T08:15:50.349Z,20.00
2018-06-19T08:18:22.446Z,20.00
2018-06-19T08:20:52.336Z,19.70
2018-06-19T08:23:23.616Z,19.30
2018-06-19T08:25:55.736Z,19.60
2018-06-19T08:28:26.039Z,19.80
2018-06-19T08:30:55.527Z,20.20
2018-06-19T08:33:25.240Z,20.40
2018-06-19T08:35:55.918Z,20.30
2018-06-19T08:38:39.130Z,20.00
2018-06-19T08:41:21.033Z,20.50
2018-06-19T08:43:55.127Z,22.00
2018-06-19T08:46:37.672Z,21.10
2018-06-19T08:49:14.382Z,20.50
2018-06-19T08:51:57.022Z,20.80
2018-06-19T08:54:39.353Z,20.80
2018-06-19T09:02:14.252Z,21.30
2018-06-19T09:07:28.323Z,24.70
2018-06-19T09:10:00.380Z,23.70
2018-06-19T09:12:45.950Z,25.60
2018-06-19T09:15:25.559Z,27.40
2018-06-19T09:17:57.782Z,29.40
2018-06-19T09:20:28.169Z,30.00
2018-06-19T09:23:22.273Z,26.10
2018-06-19T09:25:55.291Z,24.80
2018-06-19T09:28:28.140Z,27.40
2018-06-19T09:31:11.688Z,29.10
2018-06-19T09:33:49.015Z,28.40
2018-06-19T09:39:09.232Z,29.20
2018-06-19T09:41:43.605Z,29.60
2018-06-19T09:44:21.383Z,27.10
2018-06-19T09:46:52.077Z,25.40
2018-06-19T09:49:49.345Z,27.70
2018-06-19T09:52:23.103Z,29.00
2018-06-19T09:57:31.611Z,29.50
2018-06-19T10:00:00.997Z,25.80
2018-06-19T10:02:32.239Z,25.60
2018-06-19T10:07:31.998Z,27.10
2018-06-19T10:10:04.306Z,27.50
2018-06-19T10:12:35.345Z,24.90
2018-06-19T10:15:08.618Z,25.40
2018-06-19T10:17:40.973Z,24.90
2018-06-19T10:20:13.351Z,24.80
2018-06-19T10:22:44.635Z,24.30
2018-06-19T10:25:14.721Z,24.10
2018-06-19T10:27:44.567Z,23.50
2018-06-19T10:30:17.578Z,23.20
2018-06-19T10:32:52.776Z,24.70
2018-06-19T10:35:29.580Z,25.00
2018-06-19T10:40:28.222Z,23.40
2018-06-19T10:42:58.073Z,23.80
2018-06-19T10:45:31.642Z,23.20
2018-06-19T10:48:07.465Z,23.00
2018-06-19T10:50:38.062Z,23.90
2018-06-19T10:53:13.061Z,24.80
2018-06-19T10:59:21.423Z,24.50
2018-06-19T11:02:05.838Z,25.30
2018-06-19T11:04:40.994Z,25.80
2018-06-19T11:11:11.640Z,25.50
2018-06-19T11:13:42.700Z,27.70
2018-06-19T11:16:23.621Z,29.70
2018-06-19T11:19:03.204Z,27.20
2018-06-19T11:21:32.941Z,26.50
2018-06-19T11:24:03.078Z,26.90
2018-06-19T11:26:37.196Z,27.70
2018-06-19T11:29:09.652Z,27.40
2018-06-19T11:31:42.920Z,27.30
2018-06-19T11:34:15.054Z,26.60
2018-06-19T11:36:44.481Z,25.20
2018-06-19T11:39:14.658Z,26.00
2018-06-19T11:41:45.616Z,25.20
2018-06-19T11:44:24.562Z,25.10
2018-06-19T11:46:55.674Z,24.60
2018-06-19T11:49:42.156Z,24.70
2018-06-19T11:52:13.736Z,23.80
2018-06-19T11:55:30.130Z,23.40
2018-06-19T11:58:00.621Z,24.50
2018-06-19T12:00:33.584Z,24.80
2018-06-19T12:03:05.143Z,24.50
2018-06-19T12:12:48.411Z,23.80
2018-06-19T12:15:20.115Z,24.60
2018-06-19T12:17:50.687Z,25.10
2018-06-19T12:20:47.585Z,25.60
2018-06-19T12:23:19.081Z,25.90
2018-06-19T12:25:48.414Z,25.10
2018-06-19T12:28:19.938Z,24.60
2018-06-19T12:30:50.749Z,24.60
2018-06-19T12:33:20.312Z,25.30
2018-06-19T12:35:50.673Z,25.00
2018-06-19T12:38:22.046Z,25.60
2018-06-19T12:40:53.588Z,25.80
2018-06-19T12:43:23.493Z,25.70
2018-06-19T12:45:54.957Z,25.10
2018-06-19T12:49:00.550Z,24.70
2018-06-19T12:51:51.804Z,24.60
2018-06-19T12:55:01.617Z,24.20
2018-06-19T12:57:51.949Z,24.30
2018-06-19T13:00:41.782Z,24.80
2018-06-19T13:03:24.279Z,25.50
2018-06-19T13:06:19.128Z,25.60
2018-06-19T13:13:22.784Z,25.90
2018-06-19T13:16:02.517Z,26.50
2018-06-19T13:18:58.183Z,26.80
2018-06-19T13:22:00.210Z,27.20
2018-06-19T13:24:32.319Z,27.00
2018-06-19T13:27:02.660Z,27.80
2018-06-19T13:29:49.667Z,27.90
2018-06-19T13:32:28.296Z,26.80
2018-06-19T13:34:59.801Z,26.10
2018-06-19T13:37:30.972Z,25.70
2018-06-19T13:41:13.146Z,25.50
2018-06-19T13:43:54.222Z,25.00
2018-06-19T13:46:27.035Z,24.80
2018-06-19T13:49:07.850Z,24.50
2018-06-19T13:51:53.344Z,24.10
2018-06-19T13:54:30.255Z,24.20
2018-06-19T14:03:18.488Z,24.40
2018-06-19T14:05:52.372Z,24.50
2018-06-19T14:08:35.417Z,24.10
2018-06-19T14:11:28.162Z,23.70
2018-06-19T14:14:01.445Z,23.70
2018-06-19T14:16:45.050Z,23.90
2018-06-19T14:19:17.528Z,24.10
2018-06-19T14:21:47.032Z,24.30
2018-06-19T14:24:20.513Z,24.30
2018-06-19T14:26:49.935Z,24.10
2018-06-19T14:29:20.749Z,23.80
2018-06-19T14:31:54.008Z,24.10
2018-06-19T14:34:26.089Z,24.90
2018-06-19T14:36:56.478Z,25.30
2018-06-19T14:39:33.232Z,25.20
2018-06-19T14:42:03.827Z,24.50
2018-06-19T14:44:35.076Z,24.50
2018-06-19T14:47:05.061Z,24.10
2018-06-19T14:49:34.926Z,24.00
2018-06-19T14:54:34.146Z,24.20
2018-06-19T14:59:37.085Z,24.60
2018-06-19T15:02:06.727Z,24.30
2018-06-19T15:04:40.878Z,24.70
2018-06-19T15:07:19.194Z,25.00
2018-06-19T15:09:49.327Z,25.40
2018-06-19T15:12:19.612Z,24.70
2018-06-19T15:14:52.122Z,25.10
2018-06-19T15:17:22.119Z,24.60
2018-06-19T15:20:29.876Z,24.30
2018-06-19T15:22:59.774Z,24.10
2018-06-19T15:25:32.113Z,23.90
2018-06-19T15:28:01.789Z,24.00
2018-06-19T15:30:36.658Z,24.30
2018-06-19T15:33:08.857Z,24.80
2018-06-19T15:35:46.678Z,24.90
2018-06-19T15:38:32.510Z,24.30
2018-06-19T15:41:06.645Z,24.10
2018-06-19T15:43:36.519Z,24.50
2018-06-19T15:46:11.014Z,24.70
2018-06-19T15:48:41.850Z,24.90
2018-06-19T15:52:03.685Z,25.20
2018-06-19T15:54:34.991Z,24.90
2018-06-19T15:57:05.760Z,24.10
2018-06-19T15:59:47.798Z,23.90
2018-06-19T16:02:17.827Z,23.90
2018-06-19T16:04:47.545Z,23.80
2018-06-19T16:07:56.350Z,23.80
2018-06-19T16:10:31.836Z,23.80
2018-06-19T16:13:12.397Z,23.90
2018-06-19T16:15:43.436Z,23.90
2018-06-19T16:18:14.451Z,23.70
2018-06-19T16:20:45.286Z,23.60
2018-06-19T16:23:15.470Z,23.70
2018-06-19T16:25:53.588Z,23.90
2018-06-19T16:28:33.001Z,23.80
2018-06-19T16:31:07.400Z,23.90
2018-06-19T16:33:42.516Z,24.00
2018-06-19T16:40:18.985Z,24.20
2018-06-19T16:42:53.749Z,23.90
2018-06-19T16:47:56.848Z,23.90
2018-06-19T16:50:35.903Z,23.90
2018-06-19T16:53:14.189Z,23.70
2018-06-19T16:55:47.858Z,23.50
2018-06-19T16:58:50.078Z,23.60
2018-06-19T17:01:20.119Z,23.70
2018-06-19T17:03:51.490Z,23.60
2018-06-19T17:10:00.800Z,23.40
2018-06-19T17:12:32.954Z,23.40
2018-06-19T17:15:07.461Z,23.50
2018-06-19T17:17:37.965Z,23.70
2018-06-19T17:23:04.389Z,23.90
2018-06-19T17:25:52.316Z,24.00
2018-06-19T17:28:23.835Z,23.80
2018-06-19T17:30:55.303Z,23.70
2018-06-19T17:33:24.901Z,23.50
2018-06-19T17:35:54.937Z,23.90
2018-06-19T17:38:34.517Z,24.10
2018-06-19T17:41:05.990Z,24.10
2018-06-19T17:43:40.082Z,23.90
2018-06-19T17:46:09.672Z,23.80
2018-06-19T17:48:42.479Z,23.80
2018-06-19T17:51:16.102Z,24.10
2018-06-19T17:53:47.456Z,24.20
2018-06-19T17:59:36.962Z,23.90
2018-06-19T18:04:39.284Z,23.50
2018-06-19T18:07:08.529Z,23.20
2018-06-19T18:15:21.558Z,23.00
2018-06-19T18:18:12.996Z,23.00
2018-06-19T18:20:42.683Z,23.00
2018-06-19T18:23:11.970Z,22.80
2018-06-19T18:25:41.319Z,22.70
2018-06-19T18:28:12.770Z,22.60
2018-06-19T18:31:06.603Z,22.40
2018-06-19T18:33:38.862Z,22.20
2018-06-19T18:36:08.226Z,22.30
2018-06-19T18:38:37.941Z,22.00
2018-06-19T18:41:07.871Z,21.80
2018-06-19T18:43:37.082Z,21.60
2018-06-19T18:46:34.137Z,21.50
2018-06-19T18:49:03.352Z,21.50
2018-06-19T18:51:32.544Z,21.70
2018-06-19T18:54:02.252Z,21.80
2018-06-19T18:56:31.499Z,21.10
2018-06-19T18:59:04.086Z,21.10
2018-06-19T19:01:38.918Z,21.10
2018-06-19T19:04:09.031Z,21.20
2018-06-19T19:06:38.690Z,21.00
2018-06-19T19:09:10.323Z,21.10
2018-06-19T19:11:39.775Z,21.40
2018-06-19T19:14:09.486Z,21.30
2018-06-19T19:16:44.267Z,21.20
2018-06-19T19:19:17.871Z,20.60
2018-06-19T19:21:47.484Z,20.60
2018-06-19T19:24:17.016Z,20.70
2018-06-19T19:26:52.238Z,20.50
2018-06-19T19:29:57.280Z,20.60
2018-06-19T19:32:27.414Z,20.70
2018-06-19T19:37:33.683Z,20.20
2018-06-19T19:40:03.089Z,20.20
2018-06-19T19:42:32.399Z,20.40
2018-06-19T19:45:01.648Z,20.50
2018-06-19T19:47:40.172Z,20.60
2018-06-19T19:50:09.444Z,20.50
2018-06-19T19:52:51.866Z,20.50
2018-06-19T19:55:21.513Z,20.50
2018-06-19T19:57:57.407Z,20.30
2018-06-19T20:00:37.333Z,19.90
2018-06-19T20:03:09.330Z,19.70
2018-06-19T20:05:39.076Z,19.80
2018-06-19T20:08:08.523Z,19.70
2018-06-19T20:10:38.201Z,19.40
2018-06-19T20:13:07.461Z,19.50
2018-06-19T20:18:06.120Z,19.50
2018-06-19T20:20:35.938Z,19.50
2018-06-19T20:23:05.578Z,19.50
2018-06-19T20:25:35.435Z,19.40
2018-06-19T20:28:05.547Z,19.30
2018-06-19T20:30:36.894Z,19.00
2018-06-19T20:33:12.646Z,18.70
2018-06-19T20:35:42.245Z,18.60
2018-06-19T20:38:12.075Z,18.80
2018-06-19T20:40:41.725Z,19.10
2018-06-19T20:43:11.526Z,19.40
2018-06-19T20:45:40.893Z,19.30
2018-06-19T20:48:10.512Z,19.30
2018-06-19T20:50:40.161Z,19.10
2018-06-19T20:53:09.439Z,19.00
2018-06-19T20:55:39.153Z,18.90
2018-06-19T20:58:08.435Z,18.80
2018-06-19T21:00:37.731Z,18.60
2018-06-19T21:03:08.299Z,18.50
2018-06-19T21:05:37.846Z,18.20
2018-06-19T21:14:53.766Z,18.20
2018-06-19T21:17:23.398Z,17.70
2018-06-19T21:19:52.740Z,18.00
2018-06-19T21:22:21.973Z,18.30
2018-06-19T21:24:51.649Z,18.40
2018-06-19T21:27:20.878Z,18.40
2018-06-19T21:29:50.340Z,18.40
2018-06-19T21:32:19.982Z,18.30
2018-06-19T21:34:49.228Z,18.30
2018-06-19T21:37:18.667Z,18.10
2018-06-19T21:39:48.609Z,18.10
2018-06-19T21:42:18.185Z,18.00
2018-06-19T21:44:47.426Z,17.90
2018-06-19T21:47:17.049Z,18.00
2018-06-19T21:49:46.450Z,18.10
2018-06-19T21:52:15.693Z,18.20
2018-06-19T21:54:45.285Z,18.20
2018-06-19T21:57:14.517Z,18.10
2018-06-19T21:59:43.738Z,18.10
2018-06-19T22:02:18.033Z,18.10
2018-06-19T22:04:47.286Z,18.00
2018-06-19T22:07:16.569Z,17.80
2018-06-19T22:09:46.613Z,17.40
2018-06-19T22:12:15.830Z,17.40
2018-06-19T22:14:45.445Z,17.60
2018-06-19T22:17:15.593Z,17.70
2018-06-19T22:19:44.869Z,17.90
2018-06-19T22:22:14.091Z,18.00
2018-06-19T22:24:43.670Z,17.90
2018-06-19T22:27:12.869Z,18.00
2018-06-19T22:29:42.102Z,18.00
2018-06-19T22:32:11.752Z,17.90
2018-06-19T22:34:41.285Z,17.60
2018-06-19T22:37:10.490Z,17.80
2018-06-19T22:39:40.431Z,17.70
2018-06-19T22:42:10.527Z,17.80
2018-06-19T22:44:39.733Z,18.00
2018-06-19T22:47:09.482Z,17.90
2018-06-19T22:49:38.773Z,17.80
2018-06-19T22:52:08.152Z,17.70
2018-06-19T22:54:37.763Z,17.70
2018-06-19T22:57:07.007Z,17.60
2018-06-19T22:59:36.292Z,17.60
2018-06-19T23:04:34.753Z,17.50
2018-06-19T23:07:04.068Z,17.50
2018-06-19T23:09:34.139Z,17.60
2018-06-19T23:12:03.705Z,17.70
2018-06-19T23:14:32.914Z,17.50
2018-06-19T23:17:02.912Z,17.50
2018-06-19T23:19:32.097Z,17.40
2018-06-19T23:22:01.368Z,17.30
2018-06-19T23:24:30.977Z,17.20
2018-06-19T23:27:00.451Z,17.30
2018-06-19T23:31:59.219Z,17.20
2018-06-19T23:34:28.567Z,17.00
2018-06-19T23:39:26.996Z,16.90
2018-06-19T23:41:56.330Z,16.90
2018-06-19T23:44:25.518Z,16.90
2018-06-19T23:46:55.502Z,17.10
2018-06-19T23:49:24.743Z,17.00
2018-06-19T23:51:54.006Z,16.70
2018-06-19T23:54:23.678Z,16.70
2018-06-19T23:56:52.906Z,16.80
2018-06-19T23:59:22.182Z,16.90
